Time;durP1;ratioP1;P1;durP2;ratioP2;P2;SDS_P1;SDS_P2;PMS_P1;PMS_P2;Temp;Humidity;BMP_temperature;BMP_pressure;BME280_temperature;BME280_humidity;BME280_pressure;Samples;Min_cycle;Max_cycle;Signal;HPM_P1;HPM_P2
2023/10/20 00:00:39;;;;;;;3.20;2.22;;;16.50;80.00;;;;;;5072519;28;20417;-66
2023/10/20 00:03:06;;;;;;;4.70;2.88;;;16.40;79.80;;;;;;5071887;28;20031;-67
2023/10/20 00:05:33;;;;;;;2.85;1.55;;;16.40;80.60;;;;;;5072466;28;20034;-66
2023/10/20 00:08:01;;;;;;;2.55;1.55;;;16.50;80.30;;;;;;5073167;28;20032;-67
2023/10/20 00:10:28;;;;;;;5.00;2.03;;;16.40;79.90;;;;;;5072314;28;20115;-67
2023/10/20 00:12:54;;;;;;;2.55;1.75;;;16.50;80.20;;;;;;5073048;28;20081;-67
2023/10/20 00:15:22;;;;;;;4.00;1.15;;;16.40;79.90;;;;;;5072317;28;20032;-67
2023/10/20 00:18:47;;;;;;;2.05;1.00;;;16.40;79.80;;;;;;5071724;28;20036;-67
2023/10/20 00:21:13;;;;;;;2.08;1.45;;;16.40;79.80;;;;;;5071312;28;20055;-67
2023/10/20 00:23:39;;;;;;;2.20;2.00;;;16.40;80.00;;;;;;5071677;28;20059;-67
2023/10/20 00:26:06;;;;;;;2.72;1.13;;;16.30;80.00;;;;;;5070975;28;20405;-67
2023/10/20 00:28:32;;;;;;;1.92;1.30;;;16.30;80.10;;;;;;5071869;28;20032;-67
2023/10/20 00:30:58;;;;;;;2.35;1.20;;;16.30;80.20;;;;;;5070524;28;20382;-67
2023/10/20 00:33:24;;;;;;;2.67;1.92;;;16.30;80.50;;;;;;5071583;28;20099;-67
2023/10/20 00:35:50;;;;;;;;;;;16.20;80.60;;;;;;5071118;28;20086;-67
2023/10/20 00:38:16;;;;;;;1.67;0.80;;;16.20;80.40;;;;;;5054689;28;19916;-67
2023/10/20 00:41:01;;;;;;;3.13;2.42;;;16.20;80.40;;;;;;5071750;28;20029;-67
2023/10/20 00:43:46;;;;;;;3.20;1.60;;;16.20;80.00;;;;;;5071526;28;20114;-66
2023/10/20 00:46:12;;;;;;;2.22;0.95;;;16.20;80.40;;;;;;5072237;28;20439;-67
2023/10/20 00:48:38;;;;;;;;;;;16.20;80.20;;;;;;5071825;28;20063;-67
2023/10/20 00:51:06;;;;;;;1.75;0.95;;;16.20;79.90;;;;;;5071496;28;19916;-67
2023/10/20 00:53:34;;;;;;;1.60;0.98;;;16.20;79.80;;;;;;5054529;28;20021;-67
2023/10/20 00:56:03;;;;;;;1.08;0.70;;;16.10;80.00;;;;;;5070749;28;20037;-67
2023/10/20 00:58:31;;;;;;;2.33;1.52;;;16.10;80.10;;;;;;5054621;28;20059;-67
2023/10/20 01:00:57;;;;;;;2.95;1.40;;;16.20;80.10;;;;;;5070242;28;20446;-67
2023/10/20 01:03:23;;;;;;;1.75;0.98;;;16.10;80.10;;;;;;5072377;28;20024;-67
2023/10/20 01:05:51;;;;;;;2.95;1.42;;;16.10;79.60;;;;;;5070423;28;20432;-67
2023/10/20 01:08:17;;;;;;;4.25;2.70;;;16.10;80.00;;;;;;5072446;28;20029;-67
2023/10/20 01:10:43;;;;;;;;;;;16.10;79.50;;;;;;5070672;28;20374;-67
2023/10/20 01:13:09;;;;;;;2.72;1.15;;;16.10;79.40;;;;;;5070994;28;19916;-67
2023/10/20 01:15:55;;;;;;;2.53;1.35;;;16.10;79.90;;;;;;5071735;28;20158;-67
2023/10/20 01:18:21;;;;;;;1.45;1.00;;;16.10;80.10;;;;;;5072454;28;20036;-67
2023/10/20 01:20:47;;;;;;;;;;;16.10;80.20;;;;;;5071855;28;20041;-67
2023/10/20 01:23:13;;;;;;;2.30;1.65;;;16.10;80.40;;;;;;5071072;28;19939;-67
2023/10/20 01:25:39;;;;;;;4.10;1.75;;;16.10;80.50;;;;;;5071659;28;20037;-67
2023/10/20 01:28:05;;;;;;;1.35;1.23;;;16.00;80.40;;;;;;5071017;28;20032;-67
2023/10/20 01:30:31;;;;;;;2.75;0.77;;;16.00;80.40;;;;;;5070137;28;20036;-67
2023/10/20 01:32:58;;;;;;;3.08;1.40;;;16.00;80.50;;;;;;5075046;28;20028;-67
2023/10/20 01:35:24;;;;;;;4.15;2.38;;;16.00;80.70;;;;;;5074290;28;20467;-66
2023/10/20 01:37:50;;;;;;;2.60;1.45;;;16.00;81.00;;;;;;5074839;28;20029;-67
2023/10/20 01:40:17;;;;;;;1.02;0.65;;;16.00;80.90;;;;;;5073754;28;20029;-68
2023/10/20 01:42:43;;;;;;;1.35;0.38;;;16.00;80.90;;;;;;5075798;28;20393;-67
2023/10/20 01:45:09;;;;;;;2.33;1.40;;;16.00;80.90;;;;;;5074037;28;20032;-67
2023/10/20 01:47:35;;;;;;;1.02;0.60;;;16.00;80.90;;;;;;5058136;28;20070;-67
2023/10/20 01:50:01;;;;;;;1.48;0.98;;;16.00;80.90;;;;;;5074736;28;20040;-67
2023/10/20 01:52:27;;;;;;;2.55;1.50;;;16.00;80.90;;;;;;5073608;28;20086;-67
2023/10/20 01:54:53;;;;;;;1.25;0.85;;;16.00;80.80;;;;;;5074418;28;20040;-67
2023/10/20 01:57:20;;;;;;;1.65;0.85;;;16.00;80.90;;;;;;5075583;28;20068;-67
2023/10/20 01:59:45;;;;;;;;;;;16.00;80.90;;;;;;5076250;28;20055;-67
2023/10/20 02:02:13;;;;;;;2.17;0.98;;;16.00;80.80;;;;;;5075013;28;19920;-66
2023/10/20 02:04:39;;;;;;;1.45;0.95;;;16.00;80.70;;;;;;5075131;28;20036;-67
2023/10/20 02:07:05;;;;;;;1.83;1.23;;;15.90;81.00;;;;;;5075119;28;20036;-67
2023/10/20 02:09:31;;;;;;;;;;;16.00;81.10;;;;;;5074874;28;20485;-66
2023/10/20 02:11:58;;;;;;;1.65;1.35;;;16.00;80.90;;;;;;5073173;28;20018;-67
2023/10/20 02:14:43;;;;;;;2.30;1.45;;;16.00;80.80;;;;;;5075445;28;20028;-67
2023/10/20 02:17:10;;;;;;;2.92;2.15;;;16.10;81.00;;;;;;5073803;28;20040;-66
2023/10/20 02:19:36;;;;;;;1.48;1.02;;;16.10;80.80;;;;;;5074052;28;20039;-67
2023/10/20 02:22:02;;;;;;;1.98;1.60;;;16.10;80.90;;;;;;5072863;28;20048;-67
2023/10/20 02:24:29;;;;;;;1.77;0.90;;;16.20;81.00;;;;;;5075159;28;20039;-67
2023/10/20 02:26:55;;;;;;;1.17;0.80;;;16.20;80.80;;;;;;5074851;28;20063;-67
2023/10/20 02:29:21;;;;;;;1.58;0.85;;;16.20;80.70;;;;;;5075331;28;20036;-67
2023/10/20 02:31:47;;;;;;;1.65;0.82;;;16.20;80.70;;;;;;5074270;28;20037;-67
2023/10/20 02:34:13;;;;;;;1.88;0.75;;;16.30;80.70;;;;;;5074850;28;20032;-66
2023/10/20 02:36:39;;;;;;;1.48;1.20;;;16.30;80.60;;;;;;5074700;28;20047;-67
2023/10/20 02:39:05;;;;;;;2.20;1.40;;;16.30;80.40;;;;;;5057177;28;20492;-67
2023/10/20 02:41:31;;;;;;;1.23;0.77;;;16.30;80.40;;;;;;5074182;28;20041;-67
2023/10/20 02:43:57;;;;;;;0.95;0.88;;;16.30;80.40;;;;;;5073854;28;20098;-66
2023/10/20 02:46:23;;;;;;;1.70;1.10;;;16.30;80.50;;;;;;5074688;28;20056;-67
2023/10/20 02:48:49;;;;;;;0.55;0.50;;;16.30;80.80;;;;;;5073676;28;20032;-67
2023/10/20 02:51:17;;;;;;;0.57;0.43;;;16.30;80.80;;;;;;5072350;28;20512;-67
2023/10/20 02:53:44;;;;;;;1.90;1.13;;;16.30;81.00;;;;;;5074520;28;20457;-66
2023/10/20 02:56:30;;;;;;;0.93;0.60;;;16.30;80.30;;;;;;5072889;28;20035;-67
2023/10/20 02:58:56;;;;;;;1.20;0.82;;;16.40;80.90;;;;;;5056728;28;20032;-67
2023/10/20 03:01:23;;;;;;;1.30;0.55;;;16.40;80.90;;;;;;5073911;28;20389;-67
2023/10/20 03:03:49;;;;;;;0.52;0.52;;;16.40;81.00;;;;;;5072947;28;20123;-67
2023/10/20 03:06:15;;;;;;;1.40;1.08;;;16.30;81.10;;;;;;5073900;28;20033;-67
2023/10/20 03:08:41;;;;;;;1.83;0.95;;;16.40;81.00;;;;;;5074463;28;20370;-67
2023/10/20 03:11:08;;;;;;;;;;;16.30;81.00;;;;;;5072776;28;20033;-67
2023/10/20 03:13:34;;;;;;;3.30;2.47;;;16.40;80.70;;;;;;5072971;28;19920;-67
2023/10/20 03:16:00;;;;;;;4.55;2.65;;;16.40;79.90;;;;;;5072563;28;20048;-67
2023/10/20 03:18:28;;;;;;;;;;;16.40;80.60;;;;;;5073533;28;20398;-66
2023/10/20 03:20:54;;;;;;;;;;;16.30;80.50;;;;;;5072448;28;19962;-67
2023/10/20 03:26:11;;;;;;;1.77;0.80;;;16.30;81.00;;;;;;5073647;28;20052;-67
2023/10/20 03:28:39;;;;;;;1.40;1.15;;;16.20;81.00;;;;;;5074094;28;20037;-68
2023/10/20 03:31:05;;;;;;;1.15;0.68;;;16.20;81.30;;;;;;5071679;28;20484;-67
2023/10/20 03:33:31;;;;;;;;;;;16.20;81.70;;;;;;5072928;28;20028;-67
2023/10/20 03:36:16;;;;;;;1.77;0.73;;;16.10;81.60;;;;;;5073535;28;20003;-67
2023/10/20 03:38:42;;;;;;;0.88;0.65;;;16.10;81.70;;;;;;5073868;28;20029;-67
2023/10/20 03:43:55;;;;;;;1.90;1.27;;;16.10;81.30;;;;;;5073767;28;20340;-67
2023/10/20 03:46:21;;;;;;;0.35;0.30;;;16.00;81.30;;;;;;5072955;28;20067;-67
2023/10/20 03:48:47;;;;;;;;;;;16.00;81.40;;;;;;5072953;28;20082;-67
2023/10/20 03:51:13;;;;;;;1.95;1.30;;;16.00;81.40;;;;;;5072530;28;19995;-67
2023/10/20 03:53:52;;;;;;;0.20;0.20;;;15.90;81.40;;;;;;5072351;28;20028;-67
2023/10/20 03:56:22;;;;;;;1.40;0.73;;;15.90;81.40;;;;;;5071853;28;20044;-67
2023/10/20 03:58:48;;;;;;;2.70;0.98;;;15.90;81.70;;;;;;5055993;28;20024;-67
2023/10/20 04:01:14;;;;;;;1.40;0.77;;;15.90;82.30;;;;;;5071184;28;20052;-67
2023/10/20 04:03:43;;;;;;;0.70;0.45;;;15.90;82.50;;;;;;5073246;28;20063;-67
2023/10/20 04:06:09;;;;;;;2.35;1.55;;;15.90;82.30;;;;;;5071409;28;20068;-67
2023/10/20 04:08:35;;;;;;;1.85;0.52;;;15.90;82.20;;;;;;5055510;28;20028;-67
2023/10/20 04:11:01;;;;;;;0.43;0.40;;;16.00;81.80;;;;;;5072334;28;20439;-67
2023/10/20 04:13:32;;;;;;;2.40;1.15;;;15.90;81.70;;;;;;5071916;28;20040;-67
2023/10/20 04:15:58;;;;;;;1.38;1.15;;;15.90;81.30;;;;;;5072657;28;20041;-67
2023/10/20 04:18:24;;;;;;;2.75;1.58;;;15.90;82.10;;;;;;5073192;28;20021;-67
2023/10/20 04:20:50;;;;;;;0.60;0.40;;;15.90;82.20;;;;;;5054245;28;20063;-67
2023/10/20 04:26:02;;;;;;;0.52;0.43;;;16.00;81.70;;;;;;5071164;28;20331;-67
2023/10/20 04:58:35;;;;;;;7.28;1.13;;;16.10;81.80;;;;;;5071425;28;20040;-67
2023/10/20 05:01:14;;;;;;;0.95;0.75;;;16.10;81.90;;;;;;5070108;28;20048;-67
2023/10/20 05:03:46;;;;;;;7.88;1.35;;;16.20;81.80;;;;;;5072444;28;20500;-67
2023/10/20 05:06:22;;;;;;;0.52;0.43;;;16.20;81.80;;;;;;5070034;28;20051;-67
2023/10/20 05:08:49;;;;;;;1.95;1.23;;;16.20;81.10;;;;;;5055800;28;20031;-67
2023/10/20 05:11:15;;;;;;;2.08;0.82;;;16.20;81.70;;;;;;5070040;28;20084;-66
2023/10/20 05:13:42;;;;;;;1.05;0.80;;;16.20;81.90;;;;;;5071281;28;20028;-67
2023/10/20 05:18:55;;;;;;;1.48;1.30;;;16.20;81.90;;;;;;5071411;28;20035;-67
2023/10/20 05:21:21;;;;;;;1.23;0.70;;;16.20;81.70;;;;;;5071419;28;20044;-67
2023/10/20 05:23:49;;;;;;;1.75;1.02;;;16.30;81.90;;;;;;5071192;28;20087;-67
2023/10/20 05:26:15;;;;;;;4.43;1.58;;;16.30;82.00;;;;;;5071721;28;20057;-67
2023/10/20 05:28:41;;;;;;;3.50;1.65;;;16.30;82.00;;;;;;5072338;28;20139;-67
2023/10/20 05:31:07;;;;;;;2.20;1.15;;;16.30;81.90;;;;;;5071366;28;20573;-67
2023/10/20 05:33:33;;;;;;;21.80;2.88;;;16.40;82.00;;;;;;5072087;28;20520;-67
2023/10/20 05:36:03;;;;;;;2.72;1.25;;;16.40;81.90;;;;;;5070159;28;20079;-67
2023/10/20 05:38:29;;;;;;;2.28;1.33;;;16.40;81.80;;;;;;5070944;28;20079;-67
2023/10/20 05:40:58;;;;;;;2.25;1.42;;;16.40;81.20;;;;;;5070006;28;20053;-67
2023/10/20 05:43:25;;;;;;;2.00;1.25;;;16.40;81.70;;;;;;5072043;28;20032;-67
2023/10/20 05:45:51;;;;;;;6.78;3.53;;;16.50;81.30;;;;;;5069907;28;20056;-67
2023/10/20 05:48:17;;;;;;;7.78;3.17;;;16.50;82.00;;;;;;5070789;28;20061;-67
2023/10/20 05:50:43;;;;;;;4.50;2.05;;;16.50;82.10;;;;;;5069630;28;20043;-67
2023/10/20 05:53:10;;;;;;;2.72;0.40;;;16.50;82.20;;;;;;5072050;28;20401;-68
2023/10/20 05:55:37;;;;;;;6.18;2.08;;;16.50;82.10;;;;;;5053574;28;20055;-67
2023/10/20 05:58:03;;;;;;;7.20;3.60;;;16.50;82.20;;;;;;5071982;28;20083;-67
2023/10/20 06:00:29;;;;;;;2.97;2.25;;;16.60;82.10;;;;;;5071036;28;20028;-67
2023/10/20 06:02:55;;;;;;;7.05;1.38;;;16.60;82.00;;;;;;5071881;28;20044;-68
2023/10/20 06:05:22;;;;;;;;;;;16.70;82.10;;;;;;5071528;28;20047;-67
2023/10/20 06:07:48;;;;;;;2.55;0.85;;;16.60;81.80;;;;;;5071849;28;20321;-67
2023/10/20 06:10:21;;;;;;;;;;;16.70;81.30;;;;;;5070109;28;20032;-67
2023/10/20 06:12:53;;;;;;;0.95;0.73;;;16.70;81.60;;;;;;5054836;28;19924;-67
2023/10/20 06:15:20;;;;;;;15.25;2.05;;;16.70;81.60;;;;;;5071194;28;20052;-67
2023/10/20 06:17:47;;;;;;;1.13;0.52;;;16.80;81.70;;;;;;5070522;28;20439;-67
2023/10/20 06:20:14;;;;;;;0.45;0.25;;;16.90;81.70;;;;;;5062468;28;20032;-67
2023/10/20 06:23:00;;;;;;;0.35;0.30;;;17.00;81.70;;;;;;5069418;28;20039;-67
2023/10/20 06:25:26;;;;;;;1.60;1.17;;;17.20;81.60;;;;;;5074499;28;20037;-67
2023/10/20 06:27:52;;;;;;;6.22;1.30;;;17.30;81.50;;;;;;5074872;28;20089;-67
2023/10/20 06:30:24;;;;;;;2.13;1.08;;;17.40;81.50;;;;;;5066102;28;20075;-67
2023/10/20 06:35:44;;;;;;;1.23;0.60;;;17.60;81.30;;;;;;5034484;28;20562;-67
2023/10/20 06:40:36;;;;;;;1.20;0.93;;;17.90;81.00;;;;;;5047305;28;20044;-67
2023/10/20 06:43:02;;;;;;;3.33;1.05;;;18.00;81.10;;;;;;5074856;28;20393;-67
2023/10/20 06:45:29;;;;;;;;;;;18.10;81.00;;;;;;5074604;28;20037;-67
2023/10/20 06:47:57;;;;;;;1.00;0.45;;;18.20;81.00;;;;;;5055303;28;20071;-67
2023/10/20 06:50:23;;;;;;;2.75;1.23;;;18.30;80.80;;;;;;5050990;28;20120;-67
2023/10/20 06:52:49;;;;;;;;;;;18.40;80.20;;;;;;5035252;28;20061;-67
2023/10/20 06:55:15;;;;;;;8.23;1.33;;;18.40;81.10;;;;;;5034534;28;19917;-67
2023/10/20 06:57:41;;;;;;;1.90;0.98;;;18.50;80.50;;;;;;5034592;28;20042;-67
2023/10/20 07:00:17;;;;;;;1.20;0.80;;;18.60;80.50;;;;;;5049846;28;20034;-68
2023/10/20 07:02:43;;;;;;;2.30;1.35;;;18.60;79.90;;;;;;5053140;28;20121;-67
2023/10/20 07:05:10;;;;;;;0.82;0.50;;;18.70;80.40;;;;;;5053054;28;20025;-67
2023/10/20 07:07:36;;;;;;;0.88;0.60;;;18.80;80.50;;;;;;5054630;28;20025;-67
2023/10/20 07:10:03;;;;;;;2.92;1.58;;;18.90;80.30;;;;;;5054358;28;20037;-68
2023/10/20 07:12:29;;;;;;;0.65;0.40;;;19.00;80.00;;;;;;5065916;28;20044;-67
2023/10/20 07:14:55;;;;;;;2.03;0.77;;;19.10;80.20;;;;;;5074183;28;20082;-67
2023/10/20 07:17:21;;;;;;;;;;;19.20;80.20;;;;;;5074440;28;20044;-67
2023/10/20 07:19:47;;;;;;;1.90;0.77;;;19.30;80.10;;;;;;5074164;28;19951;-67
2023/10/20 07:22:14;;;;;;;1.83;0.70;;;19.40;79.10;;;;;;5073305;28;20032;-67
2023/10/20 07:24:42;;;;;;;1.13;0.85;;;19.50;78.80;;;;;;5074272;28;20059;-67
2023/10/20 07:27:08;;;;;;;1.67;1.17;;;19.70;78.20;;;;;;5073665;28;20036;-67
2023/10/20 07:29:34;;;;;;;;;;;19.90;77.60;;;;;;5073199;28;20032;-68
2023/10/20 07:32:00;;;;;;;0.20;0.20;;;20.10;77.10;;;;;;5068392;28;20514;-67
2023/10/20 07:34:27;;;;;;;0.93;0.50;;;20.30;76.30;;;;;;5052173;28;20478;-67
2023/10/20 07:36:53;;;;;;;1.95;1.48;;;20.40;75.60;;;;;;5063853;28;20085;-67
2023/10/20 07:39:19;;;;;;;;;;;20.50;75.30;;;;;;5074525;28;20505;-67
2023/10/20 07:41:45;;;;;;;0.63;0.63;;;20.60;75.60;;;;;;5071490;28;20015;-67
2023/10/20 07:44:12;;;;;;;0.98;0.70;;;20.70;73.50;;;;;;5053158;28;20078;-67
2023/10/20 07:46:41;;;;;;;11.30;2.40;;;20.80;73.40;;;;;;5049049;28;20042;-67
2023/10/20 07:49:11;;;;;;;0.43;0.35;;;20.80;73.70;;;;;;5040040;28;20137;-67
2023/10/20 07:51:39;;;;;;;4.57;1.67;;;20.90;72.90;;;;;;5051296;28;20057;-67
2023/10/20 07:54:06;;;;;;;1.52;1.05;;;21.00;72.20;;;;;;5053859;28;20071;-67
2023/10/20 07:56:32;;;;;;;2.33;1.15;;;21.10;72.00;;;;;;5052972;28;20044;-67
2023/10/20 07:58:58;;;;;;;;;;;21.20;71.90;;;;;;5062426;28;20108;-68
2023/10/20 08:01:25;;;;;;;2.23;1.33;;;21.20;71.80;;;;;;5051141;28;19978;-67
2023/10/20 08:03:52;;;;;;;1.52;0.95;;;21.30;70.70;;;;;;5065004;28;20024;-67
2023/10/20 08:06:19;;;;;;;1.75;1.25;;;21.30;70.30;;;;;;5071826;28;20047;-67
2023/10/20 08:08:45;;;;;;;0.73;0.65;;;21.30;69.50;;;;;;5073025;28;20024;-67
2023/10/20 08:11:12;;;;;;;0.55;0.52;;;21.40;69.80;;;;;;5070537;28;20509;-67
2023/10/20 08:13:38;;;;;;;2.72;0.80;;;21.40;67.70;;;;;;5071699;28;20031;-67
2023/10/20 08:16:06;;;;;;;;;;;21.50;67.80;;;;;;5073257;28;20385;-67
2023/10/20 08:18:33;;;;;;;0.63;0.40;;;21.60;67.90;;;;;;5066214;28;19979;-67
2023/10/20 08:21:12;;;;;;;1.70;0.85;;;21.70;66.60;;;;;;5045567;28;20095;-68
2023/10/20 08:23:39;;;;;;;0.20;0.20;;;21.70;66.20;;;;;;5015252;28;20039;-67
2023/10/20 08:26:05;;;;;;;1.42;0.60;;;21.80;65.90;;;;;;5032513;28;20033;-68
2023/10/20 08:28:32;;;;;;;6.95;1.48;;;21.90;64.90;;;;;;5033988;28;20123;-67
2023/10/20 08:31:17;;;;;;;;;;;22.00;65.00;;;;;;5052245;28;20049;-67
2023/10/20 08:33:44;;;;;;;0.28;0.28;;;21.90;65.00;;;;;;5084655;28;19912;-67
2023/10/20 08:36:12;;;;;;;1.27;0.70;;;21.90;64.80;;;;;;5048339;28;20036;-68
2023/10/20 08:38:41;;;;;;;1.02;0.75;;;21.90;65.70;;;;;;5050465;28;20053;-67
2023/10/20 08:41:26;;;;;;;1.55;1.15;;;21.80;65.20;;;;;;5039845;28;20103;-67
2023/10/20 08:43:52;;;;;;;0.65;0.50;;;22.00;65.00;;;;;;5016285;28;20033;-67
2023/10/20 08:46:19;;;;;;;0.68;0.55;;;22.20;63.90;;;;;;5050855;28;20041;-67
2023/10/20 08:48:47;;;;;;;0.88;0.75;;;23.20;61.00;;;;;;5034299;28;20100;-68
2023/10/20 08:51:16;;;;;;;1.00;0.60;;;23.90;59.20;;;;;;5023415;28;20524;-67
2023/10/20 08:53:42;;;;;;;2.15;0.98;;;24.20;57.50;;;;;;5051892;28;20029;-67
2023/10/20 08:56:11;;;;;;;1.55;1.05;;;24.30;58.00;;;;;;5051607;28;20041;-67
2023/10/20 08:58:38;;;;;;;0.45;0.45;;;24.30;57.30;;;;;;5071262;28;20481;-67
2023/10/20 09:01:05;;;;;;;1.75;0.65;;;24.20;56.90;;;;;;5061776;28;20044;-68
2023/10/20 09:03:52;;;;;;;0.38;0.38;;;24.10;54.50;;;;;;5052537;28;20498;-68
2023/10/20 09:06:18;;;;;;;4.33;1.00;;;24.10;54.50;;;;;;5049978;28;20033;-68
2023/10/20 09:08:50;;;;;;;1.83;0.90;;;24.10;54.10;;;;;;5051153;28;20036;-67
2023/10/20 09:11:18;;;;;;;0.20;0.20;;;24.00;51.60;;;;;;5050671;28;20061;-68
2023/10/20 09:13:46;;;;;;;1.52;1.20;;;23.90;52.20;;;;;;5050994;28;20064;-67
2023/10/20 09:16:14;;;;;;;3.72;0.73;;;23.80;52.40;;;;;;5053171;28;20099;-67
2023/10/20 09:18:58;;;;;;;1.65;1.02;;;23.80;52.90;;;;;;5071136;28;20031;-67
2023/10/20 09:21:28;;;;;;;1.38;1.13;;;23.90;52.80;;;;;;5055613;28;20060;-67
2023/10/20 09:24:14;;;;;;;0.32;0.30;;;23.90;52.00;;;;;;5034406;28;20052;-67
2023/10/20 09:26:41;;;;;;;1.23;0.50;;;23.80;52.60;;;;;;5033822;28;20091;-67
2023/10/20 09:29:08;;;;;;;5.30;1.23;;;23.80;53.30;;;;;;5069997;28;20032;-67
2023/10/20 09:31:35;;;;;;;0.65;0.50;;;23.80;51.70;;;;;;5066465;28;20100;-67
2023/10/20 09:34:04;;;;;;;1.83;1.15;;;23.80;52.30;;;;;;5062109;28;20029;-68
2023/10/20 09:36:31;;;;;;;2.95;1.48;;;23.80;51.80;;;;;;5069761;28;20044;-68
2023/10/20 09:38:59;;;;;;;0.90;0.60;;;23.90;52.80;;;;;;5070908;28;20107;-67
2023/10/20 09:41:48;;;;;;;1.17;0.63;;;24.10;53.00;;;;;;5069031;28;20044;-66
2023/10/20 09:44:25;;;;;;;0.60;0.57;;;24.30;52.20;;;;;;5048225;28;20497;-66
2023/10/20 09:47:13;;;;;;;0.52;0.32;;;24.50;50.20;;;;;;5051090;28;20036;-66
2023/10/20 09:49:41;;;;;;;1.13;0.75;;;24.70;50.00;;;;;;5066571;28;20086;-67
2023/10/20 09:52:08;;;;;;;5.18;2.33;;;24.70;48.80;;;;;;5069550;28;20578;-66
2023/10/20 09:54:35;;;;;;;0.35;0.30;;;24.70;49.30;;;;;;5074404;28;20489;-67
2023/10/20 09:57:03;;;;;;;0.70;0.32;;;24.70;48.90;;;;;;5073999;28;20044;-66
2023/10/20 09:59:30;;;;;;;0.85;0.57;;;24.80;49.10;;;;;;5074537;28;20024;-67
2023/10/20 10:01:59;;;;;;;1.40;0.38;;;25.00;49.60;;;;;;5066814;28;20424;-67
2023/10/20 10:04:46;;;;;;;4.90;0.70;;;25.10;47.70;;;;;;5054446;28;20402;-67
2023/10/20 10:07:15;;;;;;;0.65;0.47;;;25.10;48.20;;;;;;5054162;28;20439;-67
2023/10/20 10:12:29;;;;;;;0.88;0.63;;;25.20;48.30;;;;;;5058177;28;20516;-67
2023/10/20 10:15:23;;;;;;;3.80;0.50;;;25.20;48.30;;;;;;5055461;28;20025;-67
2023/10/20 10:17:54;;;;;;;0.43;0.40;;;25.20;48.70;;;;;;5054943;28;20116;-67
2023/10/20 10:20:25;;;;;;;1.73;0.65;;;25.30;48.60;;;;;;5051663;28;20025;-67
2023/10/20 10:25:55;;;;;;;0.73;0.60;;;25.20;47.80;;;;;;5034614;28;20111;-69
2023/10/20 10:28:21;;;;;;;2.35;0.82;;;25.30;48.30;;;;;;5037277;28;20478;-67
2023/10/20 10:31:06;;;;;;;0.90;0.52;;;25.20;48.00;;;;;;5046080;28;20041;-67
2023/10/20 10:33:32;;;;;;;2.45;0.30;;;25.30;47.80;;;;;;5060260;28;20079;-67
2023/10/20 10:36:17;;;;;;;10.43;1.77;;;25.30;48.00;;;;;;5057876;28;20086;-67
2023/10/20 10:38:44;;;;;;;1.65;0.75;;;25.40;48.20;;;;;;5064905;28;20039;-67
2023/10/20 10:41:10;;;;;;;2.25;1.60;;;25.50;46.90;;;;;;5062797;28;20041;-67
2023/10/20 10:43:36;;;;;;;2.40;1.63;;;25.70;46.60;;;;;;5051892;28;20033;-67
2023/10/20 10:46:02;;;;;;;1.13;0.75;;;25.90;45.80;;;;;;5052819;28;20040;-67
2023/10/20 10:48:30;;;;;;;1.90;1.35;;;26.20;45.90;;;;;;5053183;28;20029;-67
2023/10/20 10:50:56;;;;;;;1.85;1.58;;;26.40;45.20;;;;;;5046377;28;20056;-67
2023/10/20 10:53:25;;;;;;;3.55;1.42;;;26.60;44.00;;;;;;5036782;28;20029;-67
2023/10/20 10:55:51;;;;;;;1.95;1.00;;;26.60;43.50;;;;;;5052744;28;20115;-66
2023/10/20 10:58:18;;;;;;;0.82;0.43;;;26.60;42.90;;;;;;5053206;28;20033;-69
2023/10/20 11:00:45;;;;;;;0.95;0.85;;;26.60;43.10;;;;;;5035599;28;20151;-67
2023/10/20 11:03:13;;;;;;;1.40;0.70;;;26.70;43.50;;;;;;5054647;28;20033;-67
2023/10/20 11:05:40;;;;;;;1.17;0.73;;;26.80;42.60;;;;;;5035142;28;20036;-67
2023/10/20 11:10:53;;;;;;;0.52;0.40;;;26.90;42.50;;;;;;5060293;28;20044;-69
2023/10/20 11:13:22;;;;;;;3.72;1.00;;;27.00;43.40;;;;;;5040865;28;20104;-67
2023/10/20 11:15:49;;;;;;;0.98;0.63;;;27.10;43.60;;;;;;5053346;28;20052;-69
2023/10/20 11:18:18;;;;;;;1.92;1.42;;;27.30;42.90;;;;;;5053684;28;20064;-67
2023/10/20 11:20:47;;;;;;;0.32;0.32;;;27.40;42.30;;;;;;5035564;28;20512;-67
2023/10/20 11:23:14;;;;;;;3.50;1.27;;;27.60;41.40;;;;;;5052897;28;20025;-67
2023/10/20 11:25:42;;;;;;;0.63;0.60;;;27.80;39.90;;;;;;5053476;28;20021;-70
2023/10/20 11:28:08;;;;;;;0.35;0.35;;;28.00;39.90;;;;;;5036068;28;20029;-69
2023/10/20 11:30:41;;;;;;;0.82;0.60;;;28.10;38.40;;;;;;5031918;28;20045;-68
2023/10/20 11:33:11;;;;;;;0.65;0.40;;;28.30;37.60;;;;;;5061566;28;20052;-69
2023/10/20 11:35:37;;;;;;;1.88;0.93;;;28.50;37.10;;;;;;5031478;28;20030;-69
2023/10/20 11:38:05;;;;;;;0.52;0.45;;;28.60;36.50;;;;;;5033628;28;20041;-67
2023/10/20 11:40:32;;;;;;;0.85;0.77;;;28.70;35.70;;;;;;5035567;28;20581;-69
2023/10/20 11:42:58;;;;;;;0.73;0.60;;;28.80;34.40;;;;;;5053803;28;20424;-69
2023/10/20 11:45:24;;;;;;;3.22;0.82;;;28.80;34.90;;;;;;5055109;28;20025;-69
2023/10/20 11:47:51;;;;;;;1.05;0.57;;;29.00;35.00;;;;;;5055674;28;20028;-69
2023/10/20 11:53:01;;;;;;;2.05;1.13;;;29.00;34.30;;;;;;5062227;28;20110;-70
2023/10/20 11:55:27;;;;;;;1.48;1.20;;;29.00;33.30;;;;;;5059586;28;21040;-69
2023/10/20 11:57:53;;;;;;;0.52;0.52;;;29.10;32.20;;;;;;5059124;28;20041;-69
2023/10/20 12:00:20;;;;;;;0.30;0.30;;;29.40;33.50;;;;;;5060547;28;20389;-70
2023/10/20 12:02:46;;;;;;;1.58;1.13;;;29.50;32.40;;;;;;5052389;28;20052;-69
2023/10/20 12:05:12;;;;;;;0.65;0.65;;;29.70;31.70;;;;;;5052129;28;20531;-69
2023/10/20 12:07:38;;;;;;;4.05;0.85;;;29.90;31.10;;;;;;5051678;28;20399;-69
2023/10/20 12:10:05;;;;;;;0.52;0.50;;;30.00;31.90;;;;;;5035698;28;20135;-69
2023/10/20 12:12:31;;;;;;;2.50;1.45;;;30.10;31.80;;;;;;5035270;28;20040;-69
2023/10/20 12:14:57;;;;;;;4.75;1.15;;;30.00;31.10;;;;;;5051977;28;20041;-69
2023/10/20 12:17:24;;;;;;;1.88;1.45;;;29.80;31.00;;;;;;5048377;28;20091;-69
2023/10/20 12:19:50;;;;;;;1.23;1.08;;;29.90;31.20;;;;;;5033497;28;20102;-69
2023/10/20 12:22:17;;;;;;;2.38;0.60;;;29.90;30.80;;;;;;5050677;28;20043;-69
2023/10/20 12:24:43;;;;;;;0.95;0.68;;;30.00;31.80;;;;;;5051825;28;20029;-69
2023/10/20 12:27:10;;;;;;;1.05;0.95;;;30.10;31.40;;;;;;5051103;28;20123;-69
2023/10/20 12:29:36;;;;;;;2.00;1.25;;;30.10;30.80;;;;;;5053005;28;20029;-69
2023/10/20 12:32:03;;;;;;;2.78;1.95;;;30.40;30.70;;;;;;5050533;28;20049;-69
2023/10/20 12:34:31;;;;;;;0.55;0.50;;;30.50;30.90;;;;;;5055961;28;20024;-69
2023/10/20 12:36:59;;;;;;;1.45;1.13;;;30.60;29.80;;;;;;5054364;28;20119;-69
2023/10/20 12:39:27;;;;;;;2.75;1.60;;;30.80;29.60;;;;;;5065545;28;20048;-69
2023/10/20 12:41:54;;;;;;;3.55;1.85;;;31.50;30.00;;;;;;5033975;28;20037;-69
2023/10/20 12:44:20;;;;;;;0.70;0.70;;;31.90;28.40;;;;;;5069457;28;20485;-69
2023/10/20 12:46:46;;;;;;;4.22;1.48;;;32.10;28.30;;;;;;5060360;28;20045;-69
2023/10/20 12:49:12;;;;;;;8.57;1.75;;;31.90;28.30;;;;;;5055605;28;20025;-69
2023/10/20 12:51:40;;;;;;;2.10;1.83;;;31.30;29.00;;;;;;5052287;28;20085;-69
2023/10/20 12:54:07;;;;;;;0.95;0.80;;;30.70;29.40;;;;;;5032496;28;20387;-69
2023/10/20 12:56:34;;;;;;;0.50;0.50;;;30.20;30.00;;;;;;5032181;28;20053;-69
2023/10/20 12:59:00;;;;;;;0.60;0.60;;;29.90;30.70;;;;;;5032469;28;20368;-69
2023/10/20 13:01:26;;;;;;;1.40;1.10;;;29.60;31.00;;;;;;5031619;28;20049;-69
2023/10/20 13:03:52;;;;;;;3.63;1.60;;;29.30;31.90;;;;;;5032536;28;20433;-69
2023/10/20 13:06:18;;;;;;;1.08;0.63;;;29.30;32.70;;;;;;5031775;28;20100;-69
2023/10/20 13:08:45;;;;;;;3.33;1.73;;;29.20;32.50;;;;;;5033043;28;20029;-69
2023/10/20 13:11:32;;;;;;;0.95;0.77;;;29.10;33.10;;;;;;5013686;28;20044;-69
2023/10/20 13:13:58;;;;;;;2.30;1.15;;;29.00;33.40;;;;;;5032511;28;20044;-69
2023/10/20 13:16:24;;;;;;;3.50;1.70;;;29.00;33.10;;;;;;5047135;28;20064;-69
2023/10/20 13:18:51;;;;;;;1.40;1.13;;;29.00;32.60;;;;;;5037738;28;20378;-69
2023/10/20 13:21:17;;;;;;;1.73;0.90;;;29.30;32.30;;;;;;5052701;28;20040;-69
2023/10/20 13:23:43;;;;;;;0.47;0.40;;;29.50;31.30;;;;;;5063610;28;20504;-69
2023/10/20 13:26:10;;;;;;;7.93;1.02;;;29.20;31.50;;;;;;5061319;28;20045;-69
2023/10/20 13:28:36;;;;;;;1.63;1.05;;;29.00;32.50;;;;;;5064659;28;20036;-69
2023/10/20 13:31:06;;;;;;;1.92;1.25;;;28.90;32.40;;;;;;5060003;28;20048;-69
2023/10/20 13:33:34;;;;;;;5.10;1.25;;;28.80;33.00;;;;;;5065755;28;20044;-69
2023/10/20 13:36:19;;;;;;;4.93;0.70;;;29.10;33.50;;;;;;5040447;28;20029;-69
2023/10/20 13:38:45;;;;;;;0.55;0.40;;;29.80;32.40;;;;;;5054865;28;20171;-68
2023/10/20 13:43:56;;;;;;;0.45;0.45;;;29.70;31.00;;;;;;5055641;28;20059;-69
2023/10/20 13:46:22;;;;;;;0.50;0.50;;;29.30;32.60;;;;;;5055513;28;20033;-69
2023/10/20 13:48:48;;;;;;;1.77;0.63;;;29.00;33.10;;;;;;5054323;28;20072;-68
2023/10/20 13:51:14;;;;;;;2.05;1.30;;;28.70;33.20;;;;;;5053259;28;20486;-69
2023/10/20 13:53:40;;;;;;;1.95;1.45;;;28.40;33.90;;;;;;5054539;28;20036;-68
2023/10/20 13:56:06;;;;;;;0.45;0.32;;;28.20;34.90;;;;;;5059087;28;20493;-68
2023/10/20 13:58:32;;;;;;;1.55;1.10;;;28.00;34.80;;;;;;5064098;28;20056;-69